Latest Weather Observations for Point Wilson

IDV60901

Issued at 2:51 am EST Sunday 23 July 2017 (issued every 10 minutes, with the page automatically refreshed every 10 minutes)

About weather observations | Map of Melbourne area stations | Latest observations for Melbourne area | Other Formats
Station Details ID: 087166 Name: POINT WILSON Lat: -38.10 Lon: 144.54 Height: 18.0 m
Data from the previous 72 hours. | See also: Recent months for locations in Victoria
Date/Time
EST
Temp
°C
App
Temp
°C
Dew
Point
°C
Rel
Hum
%
Delta-T
°C
Wind Press
QNH
hPa
Press
MSL
hPa
Rain since
9am
mm
Dir  Spd
km/h
Gust
km/h
Spd
kts
Gust
kts
23/02:30am - - - - - N 48 56 26 30 - - -
23/02:00am - - - - - N 46 54 25 29 - - -
23/01:30am - - - - - N 41 46 22 25 - - -
23/01:00am - - - - - N 39 44 21 24 - - -
23/12:30am - - - - - N 30 35 16 19 - - -
23/12:00am - - - - - N 37 43 20 23 - - -
 
Date/Time
EST
Temp
°C
App
Temp
°C
Dew
Point
°C
Rel
Hum
%
Delta-T
°C
Wind Press
QNH
hPa
Press
MSL
hPa
Rain since
9am
mm
Dir  Spd
km/h
Gust
km/h
Spd
kts
Gust
kts
22/11:43pm - - - - - N 43 61 23 33 - - -
22/11:30pm - - - - - N 44 50 24 27 - - -
22/11:00pm - - - - - NNE 46 52 25 28 - - -
22/10:30pm - - - - - N 43 48 23 26 - - -
22/10:00pm - - - - - N 41 48 22 26 - - -
22/09:30pm - - - - - N 37 46 20 25 - - -
22/09:00pm - - - - - N 33 41 18 22 - - -
22/08:30pm - - - - - N 41 50 22 27 - - -
22/08:00pm - - - - - N 41 50 22 27 - - -
22/07:30pm - - - - - N 43 52 23 28 - - -
22/07:00pm - - - - - N 46 56 25 30 - - -
22/06:30pm - - - - - N 50 61 27 33 - - -
22/06:00pm - - - - - N 48 56 26 30 - - -
22/05:30pm - - - - - N 41 50 22 27 - - -
22/05:00pm - - - - - N 39 46 21 25 - - -
22/04:30pm - - - - - N 33 37 18 20 - - -
22/04:00pm - - - - - N 39 46 21 25 - - -
22/03:30pm - - - - - N 43 50 23 27 - - -
22/03:00pm - - - - - N 39 46 21 25 - - -
22/02:30pm - - - - - N 26 35 14 19 - - -
22/02:00pm - - - - - N 22 30 12 16 - - -
22/01:30pm - - - - - NNE 35 39 19 21 - - -
22/01:00pm - - - - - NNE 28 32 15 17 - - -
22/12:30pm - - - - - NE 33 39 18 21 - - -
22/12:00pm - - - - - NNE 35 39 19 21 - - -
22/11:30am - - - - - N 37 43 20 23 - - -
22/11:00am - - - - - N 37 41 20 22 - - -
22/10:30am - - - - - NNE 35 41 19 22 - - -
22/10:00am - - - - - NNE 35 41 19 22 - - -
22/09:30am - - - - - NNE 35 39 19 21 - - -
22/09:00am - - - - - NNE 30 33 16 18 - - -
22/08:30am - - - - - NNE 30 35 16 19 - - -
22/08:00am - - - - - N 24 28 13 15 - - -
22/07:30am - - - - - N 20 24 11 13 - - -
22/07:00am - - - - - N 19 22 10 12 - - -
22/06:30am - - - - - NNE 22 28 12 15 - - -
22/06:00am - - - - - NNE 26 30 14 16 - - -
22/05:30am - - - - - NNE 30 33 16 18 - - -
22/05:00am - - - - - NNE 30 33 16 18 - - -
22/04:30am - - - - - NNE 28 32 15 17 - - -
22/04:00am - - - - - N 17 20 9 11 - - -
22/03:30am - - - - - N 19 24 10 13 - - -
22/03:00am - - - - - NNE 26 30 14 16 - - -
22/02:30am - - - - - NNE 26 30 14 16 - - -
22/02:00am - - - - - NNE 22 24 12 13 - - -
22/01:30am - - - - - N 20 24 11 13 - - -
22/01:00am - - - - - N 20 22 11 12 - - -
22/12:30am - - - - - N 17 17 9 9 - - -
22/12:00am - - - - - NNE 15 17 8 9 - - -
 
Date/Time
EST
Temp
°C
App
Temp
°C
Dew
Point
°C
Rel
Hum
%
Delta-T
°C
Wind Press
QNH
hPa
Press
MSL
hPa
Rain since
9am
mm
Dir  Spd
km/h
Gust
km/h
Spd
kts
Gust
kts
21/11:30pm - - - - - NNE 13 15 7 8 - - -
21/11:00pm - - - - - N 13 17 7 9 - - -
21/10:30pm - - - - - NNW 15 17 8 9 - - -
21/10:00pm - - - - - NNW 13 17 7 9 - - -
21/09:30pm - - - - - NNW 17 19 9 10 - - -
21/09:00pm - - - - - N 13 17 7 9 - - -
21/08:30pm - - - - - NW 11 15 6 8 - - -
21/08:00pm - - - - - WNW 17 20 9 11 - - -
21/07:30pm - - - - - E 13 15 7 8 - - -
21/07:00pm - - - - - E 15 17 8 9 - - -
21/06:30pm - - - - - ESE 15 17 8 9 - - -
21/06:00pm - - - - - E 19 20 10 11 - - -
21/05:30pm - - - - - E 17 19 9 10 - - -
21/05:00pm - - - - - E 17 19 9 10 - - -
21/04:30pm - - - - - E 19 20 10 11 - - -
21/04:00pm - - - - - E 20 20 11 11 - - -
21/03:30pm - - - - - E 19 20 10 11 - - -
21/03:00pm - - - - - E 19 20 10 11 - - -
21/02:30pm - - - - - E 17 19 9 10 - - -
21/02:00pm - - - - - E 15 17 8 9 - - -
21/01:30pm - - - - - ENE 13 15 7 8 - - -
21/01:00pm - - - - - ENE 13 17 7 9 - - -
21/12:30pm - - - - - E 13 15 7 8 - - -
21/12:00pm - - - - - ESE 7 11 4 6 - - -
21/11:30am - - - - - WSW 4 7 2 4 - - -
21/11:00am - - - - - W 11 17 6 9 - - -
21/10:30am - - - - - W 20 24 11 13 - - -
21/10:00am - - - - - WNW 17 19 9 10 - - -
21/09:30am - - - - - WSW 11 15 6 8 - - -
21/09:00am - - - - - W 15 19 8 10 - - -
21/08:30am - - - - - WNW 20 24 11 13 - - -
21/08:00am - - - - - WSW 20 24 11 13 - - -
21/07:30am - - - - - W 24 28 13 15 - - -
21/07:00am - - - - - W 28 32 15 17 - - -
21/06:30am - - - - - W 28 32 15 17 - - -
21/06:00am - - - - - W 28 32 15 17 - - -
21/05:30am - - - - - W 26 32 14 17 - - -
21/05:00am - - - - - W 19 20 10 11 - - -
21/04:30am - - - - - W 13 19 7 10 - - -
21/04:00am - - - - - WNW 13 17 7 9 - - -
21/03:30am - - - - - WNW 11 15 6 8 - - -
21/03:00am - - - - - WNW 13 17 7 9 - - -
21/02:30am - - - - - WSW 15 19 8 10 - - -
21/02:00am - - - - - WSW 13 17 7 9 - - -
21/01:30am - - - - - W 20 22 11 12 - - -
21/01:00am - - - - - WNW 24 26 13 14 - - -
21/12:30am - - - - - WNW 17 20 9 11 - - -
21/12:00am - - - - - W 19 20 10 11 - - -
 
Date/Time
EST
Temp
°C
App
Temp
°C
Dew
Point
°C
Rel
Hum
%
Delta-T
°C
Wind Press
QNH
hPa
Press
MSL
hPa
Rain since
9am
mm
Dir  Spd
km/h
Gust
km/h
Spd
kts
Gust
kts
20/11:30pm - - - - - W 19 20 10 11 - - -
20/11:00pm - - - - - W 20 22 11 12 - - -
20/10:30pm - - - - - W 20 24 11 13 - - -
20/10:00pm - - - - - WNW 22 26 12 14 - - -
20/09:30pm - - - - - WNW 19 20 10 11 - - -
20/09:00pm - - - - - W 22 26 12 14 - - -
20/08:30pm - - - - - W 22 26 12 14 - - -
20/08:00pm - - - - - WSW 19 22 10 12 - - -
20/07:30pm - - - - - WSW 20 22 11 12 - - -
20/07:00pm - - - - - WSW 20 24 11 13 - - -
20/06:30pm - - - - - WSW 22 24 12 13 - - -
20/06:00pm - - - - - WSW 22 26 12 14 - - -
20/05:30pm - - - - - SW 26 32 14 17 - - -
20/05:00pm - - - - - SW 24 28 13 15 - - -
20/04:30pm - - - - - SW 32 37 17 20 - - -
20/04:00pm - - - - - SW 28 37 15 20 - - -
20/03:30pm - - - - - WSW 26 32 14 17 - - -
20/03:00pm - - - - - SW 43 50 23 27 - - -
20/02:30pm - - - - - SW 30 33 16 18 - - -
20/02:00pm - - - - - SW 35 43 19 23 - - -
20/01:30pm - - - - - SW 43 57 23 31 - - -
20/01:00pm - - - - - SW 37 50 20 27 - - -
20/12:36pm - - - - - SW 32 50 17 27 - - -
20/12:30pm - - - - - WSW 28 33 15 18 - - -
20/12:00pm - - - - - WSW 35 44 19 24 - - -
20/11:30am - - - - - SW 37 44 20 24 - - -
20/11:02am - - - - - SW 33 54 18 29 - - -
20/11:00am - - - - - SW 32 43 17 23 - - -
20/10:30am - - - - - WSW 32 37 17 20 - - -
20/10:00am - - - - - WSW 33 43 18 23 - - -
20/09:30am - - - - - WSW 30 35 16 19 - - -
20/09:00am - - - - - WSW 33 41 18 22 - - -
20/08:30am - - - - - W 32 37 17 20 - - -
20/08:00am - - - - - W 35 39 19 21 - - -
20/07:30am - - - - - W 33 37 18 20 - - -
20/07:00am - - - - - W 35 43 19 23 - - -
20/06:30am - - - - - W 35 44 19 24 - - -
20/06:00am - - - - - W 35 41 19 22 - - -
20/05:30am - - - - - W 37 48 20 26 - - -
20/05:00am - - - - - W 39 48 21 26 - - -
20/04:30am - - - - - WNW 33 44 18 24 - - -
20/04:00am - - - - - WNW 35 43 19 23 - - -
20/03:30am - - - - - W 43 50 23 27 - - -
20/03:00am - - - - - W 43 50 23 27 - - -

Latest Capital City Observations: Canberra | Sydney | Melbourne | Brisbane | Adelaide | Perth | Hobart | Darwin

Other Formats:

Comma delimited format used in spreadsheet applications
http://www.bom.gov.au/fwo/IDV60901/IDV60901.94847.axf

JavaScript Object Notation format (JSON) in row-major order
http://www.bom.gov.au/fwo/IDV60901/IDV60901.94847.json